createdAt,value
2022-12-09T00:00:34.699Z,33.35
2022-12-09T00:03:07.668Z,28.75
2022-12-09T00:05:42.346Z,30.88
2022-12-09T00:08:15.027Z,30.23
2022-12-09T00:10:47.828Z,29.87
2022-12-09T00:13:20.679Z,29.25
2022-12-09T00:15:54.306Z,28.65
2022-12-09T00:18:27.805Z,27.45
2022-12-09T00:21:00.339Z,26.07
2022-12-09T00:23:32.854Z,27.35
2022-12-09T00:26:05.536Z,27.05
2022-12-09T00:28:38.244Z,27.93
2022-12-09T00:31:15.001Z,30.08
2022-12-09T00:33:47.858Z,30.15
2022-12-09T00:36:22.420Z,28.50
2022-12-09T00:38:56.748Z,30.20
2022-12-09T00:41:29.498Z,25.65
2022-12-09T00:44:01.962Z,31.60
2022-12-09T00:46:35.160Z,30.43
2022-12-09T00:49:08.404Z,30.43
2022-12-09T00:51:41.694Z,27.55
2022-12-09T00:54:14.923Z,33.30
2022-12-09T00:56:47.776Z,31.20
2022-12-09T00:59:20.963Z,30.95
2022-12-09T01:01:54.592Z,27.70
2022-12-09T01:04:28.057Z,31.20
2022-12-09T01:07:01.227Z,29.30
2022-12-09T01:09:35.852Z,27.17
2022-12-09T01:12:09.261Z,26.55
2022-12-09T01:14:42.206Z,25.75
2022-12-09T01:17:15.082Z,19.15
2022-12-09T01:19:48.803Z,22.32
2022-12-09T01:22:21.440Z,22.87
2022-12-09T01:24:54.615Z,23.75
2022-12-09T01:27:27.678Z,22.52
2022-12-09T01:30:00.861Z,21.97
2022-12-09T01:32:33.665Z,24.18
2022-12-09T01:35:07.257Z,22.42
2022-12-09T01:37:40.214Z,21.55
2022-12-09T01:40:17.178Z,21.75
2022-12-09T01:42:52.137Z,20.90
2022-12-09T01:45:32.751Z,21.23
2022-12-09T01:48:17.365Z,20.27
2022-12-09T01:51:02.348Z,20.82
2022-12-09T01:53:38.839Z,22.02
2022-12-09T01:56:25.700Z,20.92
2022-12-09T01:59:01.941Z,22.22
2022-12-09T02:01:34.548Z,23.80
2022-12-09T02:04:08.072Z,21.97
2022-12-09T02:06:42.048Z,20.43
2022-12-09T02:09:15.533Z,20.77
2022-12-09T02:14:51.242Z,26.10
2022-12-09T02:17:35.190Z,24.02
2022-12-09T02:20:27.064Z,24.27
2022-12-09T02:23:07.465Z,24.07
2022-12-09T02:25:50.905Z,26.10
2022-12-09T02:28:37.234Z,23.52
2022-12-09T02:32:16.358Z,25.88
2022-12-09T02:35:03.278Z,28.00
2022-12-09T02:37:41.111Z,24.98
2022-12-09T02:40:24.228Z,28.27
2022-12-09T02:42:57.048Z,24.90
2022-12-09T02:45:29.894Z,26.05
2022-12-09T02:48:03.053Z,26.30
2022-12-09T02:50:38.095Z,22.07
2022-12-09T02:53:12.963Z,25.17
2022-12-09T02:55:46.423Z,25.95
2022-12-09T02:58:19.622Z,23.87
2022-12-09T03:00:52.389Z,26.42
2022-12-09T03:03:25.372Z,26.27
2022-12-09T03:06:11.541Z,24.77
2022-12-09T03:08:51.532Z,20.92
2022-12-09T03:11:25.596Z,20.68
2022-12-09T03:14:30.890Z,25.10
2022-12-09T03:17:08.297Z,23.92
2022-12-09T03:20:02.311Z,25.48
2022-12-09T03:22:36.297Z,22.07
2022-12-09T03:25:31.484Z,21.62
2022-12-09T03:28:13.857Z,20.75
2022-12-09T03:30:47.067Z,22.00
2022-12-09T03:33:20.450Z,24.32
2022-12-09T03:35:57.721Z,20.23
2022-12-09T03:38:33.899Z,23.42
2022-12-09T03:41:30.873Z,24.65
2022-12-09T03:44:13.912Z,22.10
2022-12-09T03:46:47.000Z,23.30
2022-12-09T03:49:20.195Z,22.17
2022-12-09T03:52:00.320Z,21.97
2022-12-09T03:54:40.896Z,22.87
2022-12-09T03:57:18.953Z,25.27
2022-12-09T03:59:58.613Z,24.90
2022-12-09T04:02:31.518Z,29.07
2022-12-09T04:05:04.358Z,24.27
2022-12-09T04:07:38.067Z,31.95
2022-12-09T04:10:11.124Z,29.92
2022-12-09T04:12:44.603Z,30.97
2022-12-09T04:15:17.556Z,24.57
2022-12-09T04:17:50.572Z,27.75
2022-12-09T04:20:23.088Z,25.50
2022-12-09T04:22:56.895Z,24.90
2022-12-09T04:25:29.789Z,29.20
2022-12-09T04:28:02.339Z,25.20
2022-12-09T04:30:35.084Z,24.05
2022-12-09T04:33:07.776Z,23.07
2022-12-09T04:35:41.571Z,21.37
2022-12-09T04:38:14.174Z,20.43
2022-12-09T04:40:46.714Z,22.02
2022-12-09T04:43:19.348Z,23.40
2022-12-09T04:45:51.955Z,25.77
2022-12-09T04:48:24.695Z,21.00
2022-12-09T04:50:57.325Z,16.27
2022-12-09T04:53:30.004Z,16.30
2022-12-09T04:56:04.902Z,17.50
2022-12-09T04:58:38.470Z,15.32
2022-12-09T05:01:13.153Z,16.25
2022-12-09T05:03:47.904Z,21.05
2022-12-09T05:06:22.421Z,17.17
2022-12-09T05:08:55.308Z,15.05
2022-12-09T05:11:28.895Z,17.10
2022-12-09T05:14:03.013Z,19.98
2022-12-09T05:16:35.796Z,20.30
2022-12-09T05:19:10.607Z,17.95
2022-12-09T05:21:44.054Z,15.85
2022-12-09T05:24:16.780Z,12.78
2022-12-09T05:26:49.591Z,14.28
2022-12-09T05:29:23.875Z,14.75
2022-12-09T05:31:57.407Z,14.33
2022-12-09T05:34:30.493Z,16.93
2022-12-09T05:37:03.729Z,15.30
2022-12-09T05:39:36.362Z,16.15
2022-12-09T05:42:09.936Z,14.60
2022-12-09T05:44:42.829Z,19.17
2022-12-09T05:47:15.720Z,12.95
2022-12-09T05:49:49.576Z,15.70
2022-12-09T05:52:22.240Z,16.52
2022-12-09T05:54:55.469Z,16.30
2022-12-09T05:57:28.391Z,16.17
2022-12-09T06:00:00.897Z,16.20
2022-12-09T06:02:35.872Z,15.63
2022-12-09T06:05:10.303Z,15.32
2022-12-09T06:07:44.131Z,18.25
2022-12-09T06:10:17.674Z,18.20
2022-12-09T06:12:51.224Z,22.50
2022-12-09T06:15:29.607Z,18.40
2022-12-09T06:17:58.792Z,15.20
2022-12-09T06:20:31.468Z,16.30
2022-12-09T06:23:15.471Z,18.70
2022-12-09T06:25:48.434Z,19.70
2022-12-09T06:28:21.574Z,19.48
2022-12-09T06:30:54.534Z,20.40
2022-12-09T06:33:53.663Z,19.95
2022-12-09T06:36:05.301Z,21.10
2022-12-09T06:38:38.854Z,24.95
2022-12-09T06:41:14.262Z,24.00
2022-12-09T06:43:47.495Z,21.65
2022-12-09T06:46:26.104Z,20.80
2022-12-09T06:48:59.383Z,23.30
2022-12-09T06:51:32.593Z,25.82
2022-12-09T06:54:07.273Z,25.57
2022-12-09T06:56:40.434Z,24.30
2022-12-09T06:59:13.239Z,25.65
2022-12-09T07:01:46.767Z,24.92
2022-12-09T07:04:19.696Z,30.65
2022-12-09T07:06:52.931Z,34.35
2022-12-09T15:53:07.041Z,34.15
2022-12-09T15:55:52.923Z,34.70
2022-12-09T15:58:30.541Z,41.70
2022-12-09T16:01:03.506Z,38.35
2022-12-09T16:03:36.885Z,42.38
2022-12-09T16:06:10.300Z,40.48
2022-12-09T16:08:46.811Z,43.43
2022-12-09T16:11:43.538Z,40.43
2022-12-09T16:14:16.707Z,40.40
2022-12-09T16:16:58.065Z,42.65
2022-12-09T16:19:38.426Z,43.75
2022-12-09T16:22:24.834Z,44.75
2022-12-09T16:25:16.564Z,43.02
2022-12-09T16:30:30.959Z,48.85
2022-12-09T16:33:05.108Z,56.35
2022-12-09T16:35:44.386Z,58.52
2022-12-09T16:38:19.519Z,59.45
2022-12-09T16:40:56.740Z,56.95
2022-12-09T16:43:30.693Z,57.13
2022-12-09T16:46:27.769Z,54.10
2022-12-09T16:49:04.768Z,52.98
2022-12-09T16:51:36.208Z,50.95
2022-12-09T16:54:20.087Z,45.75
2022-12-09T16:56:51.514Z,46.98
2022-12-09T16:59:24.015Z,49.83
2022-12-09T17:01:56.534Z,44.77
2022-12-09T17:04:29.917Z,47.38
2022-12-09T17:07:02.359Z,48.17
2022-12-09T17:09:35.483Z,48.38
2022-12-09T17:12:08.557Z,49.08
2022-12-09T17:14:41.176Z,49.45
2022-12-09T17:17:13.672Z,48.40
2022-12-09T17:19:46.926Z,52.23
2022-12-09T17:22:20.859Z,50.28
2022-12-09T17:24:53.409Z,50.88
2022-12-09T17:27:25.827Z,49.38
2022-12-09T17:29:58.586Z,49.58
2022-12-09T17:32:31.165Z,47.08
2022-12-09T17:35:07.467Z,48.02
2022-12-09T17:40:10.959Z,51.65
2022-12-09T17:42:43.491Z,60.30
2022-12-09T17:45:15.983Z,56.37
2022-12-09T17:47:50.233Z,56.80
2022-12-09T17:52:55.108Z,49.20
2022-12-09T17:55:29.092Z,71.07
2022-12-09T17:58:01.765Z,56.65
2022-12-09T18:00:34.262Z,55.15
2022-12-09T18:03:07.084Z,46.70
2022-12-09T18:05:40.212Z,47.50
2022-12-09T18:08:12.971Z,49.33
2022-12-09T18:10:45.637Z,51.28
2022-12-09T18:13:18.162Z,49.75
2022-12-09T18:15:54.290Z,49.95
2022-12-09T18:18:24.702Z,47.33
2022-12-09T18:21:01.788Z,49.95
2022-12-09T18:23:34.371Z,54.77
2022-12-09T18:26:15.403Z,51.37
2022-12-09T18:28:48.043Z,57.15
2022-12-09T18:31:20.420Z,58.65
2022-12-09T18:33:53.819Z,59.50
2022-12-09T18:36:28.057Z,63.08
2022-12-09T18:39:00.589Z,68.75
2022-12-09T18:41:34.127Z,73.57
2022-12-09T18:44:07.991Z,65.60
2022-12-09T18:46:43.691Z,70.55
2022-12-09T18:49:20.148Z,79.72
2022-12-09T18:51:53.318Z,62.35
2022-12-09T18:54:29.006Z,99.32
2022-12-09T18:57:04.743Z,73.00
2022-12-09T18:59:37.422Z,74.05
2022-12-09T19:02:13.091Z,77.58
2022-12-09T19:04:48.216Z,75.75
2022-12-09T19:07:20.624Z,70.78
2022-12-09T19:09:53.373Z,69.97
2022-12-09T19:15:00.624Z,78.30
2022-12-09T19:17:33.816Z,73.60
2022-12-09T19:20:08.028Z,73.47
2022-12-09T19:22:41.671Z,82.22
2022-12-09T19:25:14.114Z,85.38
2022-12-09T19:27:47.208Z,75.70
2022-12-09T19:30:19.874Z,74.15
2022-12-09T19:32:53.675Z,89.72
2022-12-09T19:35:26.439Z,80.15
2022-12-09T19:38:01.608Z,82.35
2022-12-09T19:40:34.273Z,78.10
2022-12-09T19:43:08.533Z,79.82
2022-12-09T19:48:12.615Z,77.60
2022-12-09T19:50:45.093Z,81.57
2022-12-09T19:53:17.914Z,79.65
2022-12-09T19:55:50.259Z,79.53
2022-12-09T19:58:23.279Z,75.67
2022-12-09T20:00:56.631Z,80.05
2022-12-09T20:03:29.150Z,81.92
2022-12-09T20:06:01.877Z,89.50
2022-12-09T20:08:34.315Z,98.35
2022-12-09T20:11:20.289Z,87.57
2022-12-09T20:13:53.201Z,81.12
2022-12-09T20:16:27.015Z,87.80
2022-12-09T20:19:00.515Z,90.10
2022-12-09T20:21:33.639Z,93.70
2022-12-09T20:24:06.825Z,93.30
2022-12-09T20:26:40.025Z,81.93
2022-12-09T20:29:12.563Z,91.55
2022-12-09T20:31:45.161Z,88.03
2022-12-09T20:34:18.197Z,92.42
2022-12-09T20:36:50.780Z,92.53
2022-12-09T20:39:23.304Z,90.15
2022-12-09T20:41:55.948Z,84.03
2022-12-09T20:44:29.287Z,90.62
2022-12-09T20:47:01.743Z,98.87
2022-12-09T20:49:34.141Z,97.88
2022-12-09T20:52:06.547Z,91.65
2022-12-09T20:54:39.133Z,97.85
2022-12-09T20:57:11.581Z,102.53
2022-12-09T20:59:44.164Z,113.88
2022-12-09T21:02:17.068Z,102.92
2022-12-09T21:04:49.558Z,86.45
2022-12-09T21:07:22.339Z,106.22
2022-12-09T21:09:54.715Z,104.50
2022-12-09T21:12:27.203Z,105.40
2022-12-09T21:14:59.883Z,124.85
2022-12-09T21:17:32.770Z,108.12
2022-12-09T21:20:06.225Z,99.65
2022-12-09T21:22:40.172Z,92.20
2022-12-09T21:25:12.578Z,97.27
2022-12-09T21:27:45.138Z,95.47
2022-12-09T21:30:17.434Z,87.62
2022-12-09T21:32:50.094Z,85.95
2022-12-09T21:35:23.172Z,91.22
2022-12-09T21:37:56.334Z,85.60
2022-12-09T21:40:28.859Z,90.15
2022-12-09T21:43:01.707Z,98.90
2022-12-09T21:45:35.656Z,95.17
2022-12-09T21:48:08.431Z,77.83
2022-12-09T21:50:40.732Z,75.47
2022-12-09T21:53:13.128Z,77.42
2022-12-09T21:55:45.967Z,76.20
2022-12-09T21:58:18.586Z,78.72
2022-12-09T22:00:52.059Z,76.20
2022-12-09T22:03:24.902Z,64.50
2022-12-09T22:05:59.456Z,68.62
2022-12-09T22:08:32.177Z,63.90
2022-12-09T22:11:11.035Z,69.35
2022-12-09T22:13:43.630Z,63.87
2022-12-09T22:16:20.090Z,65.42
2022-12-09T22:19:01.425Z,64.20
2022-12-09T22:21:34.658Z,76.75
2022-12-09T22:24:09.552Z,77.78
2022-12-09T22:26:44.339Z,66.85
2022-12-09T22:29:17.772Z,68.52
2022-12-09T22:31:50.234Z,68.90
2022-12-09T22:34:22.911Z,68.15
2022-12-09T22:36:56.077Z,73.83
2022-12-09T22:39:29.187Z,69.80
2022-12-09T22:42:01.751Z,69.75
2022-12-09T22:44:35.464Z,70.37
2022-12-09T22:47:08.822Z,72.08
2022-12-09T22:49:41.324Z,72.23
2022-12-09T22:52:14.219Z,73.40
2022-12-09T22:54:47.408Z,76.25
2022-12-09T22:57:19.803Z,79.17
2022-12-09T22:59:53.337Z,78.95
2022-12-09T23:02:26.248Z,91.90
2022-12-09T23:04:58.851Z,74.62
2022-12-09T23:07:31.428Z,72.50
2022-12-09T23:10:04.383Z,72.17
2022-12-09T23:12:37.449Z,76.60
2022-12-09T23:15:11.047Z,70.37
2022-12-09T23:17:43.666Z,74.85
2022-12-09T23:20:16.954Z,66.10
2022-12-09T23:22:49.359Z,67.03
2022-12-09T23:25:22.177Z,72.25
2022-12-09T23:27:54.901Z,61.10
2022-12-09T23:30:28.328Z,72.87
2022-12-09T23:33:00.865Z,63.63
2022-12-09T23:35:33.723Z,63.10
2022-12-09T23:38:06.399Z,66.65
2022-12-09T23:40:39.111Z,65.95
2022-12-09T23:43:11.530Z,64.95
2022-12-09T23:45:44.202Z,66.67
2022-12-09T23:48:16.638Z,72.12
2022-12-09T23:50:50.342Z,76.40
2022-12-09T23:53:23.526Z,66.47
2022-12-09T23:55:56.552Z,66.82
2022-12-09T23:58:29.029Z,73.62
